sensor_id;sensor_type;location;lat;lon;timestamp;P1;durP1;ratioP1;P2;durP2;ratioP2
31126;SDS011;17775;57.948;12.514;2022-07-25T00:01:16;12.60;;;6.05;;
31126;SDS011;17775;57.948;12.514;2022-07-25T00:03:45;11.13;;;6.10;;
31126;SDS011;17775;57.948;12.514;2022-07-25T00:06:13;17.65;;;7.25;;
31126;SDS011;17775;57.948;12.514;2022-07-25T00:08:43;14.80;;;6.80;;
31126;SDS011;17775;57.948;12.514;2022-07-25T00:11:09;13.10;;;6.03;;
31126;SDS011;17775;57.948;12.514;2022-07-25T00:13:36;15.15;;;6.70;;
31126;SDS011;17775;57.948;12.514;2022-07-25T00:16:02;10.18;;;6.07;;
31126;SDS011;17775;57.948;12.514;2022-07-25T00:18:29;12.85;;;6.82;;
31126;SDS011;17775;57.948;12.514;2022-07-25T00:20:55;10.45;;;5.45;;
31126;SDS011;17775;57.948;12.514;2022-07-25T00:23:21;11.95;;;6.10;;
31126;SDS011;17775;57.948;12.514;2022-07-25T00:25:48;11.50;;;6.30;;
31126;SDS011;17775;57.948;12.514;2022-07-25T00:28:14;13.40;;;6.07;;
31126;SDS011;17775;57.948;12.514;2022-07-25T00:30:41;9.38;;;5.85;;
31126;SDS011;17775;57.948;12.514;2022-07-25T00:33:07;12.00;;;5.85;;
31126;SDS011;17775;57.948;12.514;2022-07-25T00:35:34;9.95;;;6.20;;
31126;SDS011;17775;57.948;12.514;2022-07-25T00:38:02;10.73;;;6.35;;
31126;SDS011;17775;57.948;12.514;2022-07-25T00:40:28;14.02;;;5.85;;
31126;SDS011;17775;57.948;12.514;2022-07-25T00:42:55;10.52;;;5.93;;
31126;SDS011;17775;57.948;12.514;2022-07-25T00:45:21;11.35;;;6.05;;
31126;SDS011;17775;57.948;12.514;2022-07-25T00:47:48;13.52;;;5.85;;
31126;SDS011;17775;57.948;12.514;2022-07-25T00:50:14;10.85;;;6.20;;
31126;SDS011;17775;57.948;12.514;2022-07-25T00:52:41;11.55;;;6.53;;
31126;SDS011;17775;57.948;12.514;2022-07-25T00:55:08;10.27;;;6.38;;
31126;SDS011;17775;57.948;12.514;2022-07-25T00:57:34;9.90;;;6.22;;
31126;SDS011;17775;57.948;12.514;2022-07-25T01:00:00;13.63;;;6.18;;
31126;SDS011;17775;57.948;12.514;2022-07-25T01:02:27;13.18;;;6.47;;
31126;SDS011;17775;57.948;12.514;2022-07-25T01:04:53;12.88;;;6.35;;
31126;SDS011;17775;57.948;12.514;2022-07-25T01:07:22;13.57;;;6.05;;
31126;SDS011;17775;57.948;12.514;2022-07-25T01:09:48;13.65;;;6.97;;
31126;SDS011;17775;57.948;12.514;2022-07-25T01:12:15;12.15;;;6.13;;
31126;SDS011;17775;57.948;12.514;2022-07-25T01:14:41;14.23;;;6.60;;
31126;SDS011;17775;57.948;12.514;2022-07-25T01:17:07;15.10;;;7.40;;
31126;SDS011;17775;57.948;12.514;2022-07-25T01:19:34;12.55;;;6.63;;
31126;SDS011;17775;57.948;12.514;2022-07-25T01:22:01;12.40;;;6.75;;
31126;SDS011;17775;57.948;12.514;2022-07-25T01:24:27;13.02;;;6.82;;
31126;SDS011;17775;57.948;12.514;2022-07-25T01:26:54;14.40;;;6.80;;
31126;SDS011;17775;57.948;12.514;2022-07-25T01:29:20;13.40;;;7.03;;
31126;SDS011;17775;57.948;12.514;2022-07-25T01:31:47;10.55;;;6.38;;
31126;SDS011;17775;57.948;12.514;2022-07-25T01:34:15;10.43;;;5.90;;
31126;SDS011;17775;57.948;12.514;2022-07-25T01:36:42;11.23;;;6.22;;
31126;SDS011;17775;57.948;12.514;2022-07-25T01:39:08;16.58;;;7.35;;
31126;SDS011;17775;57.948;12.514;2022-07-25T01:41:35;15.00;;;6.22;;
31126;SDS011;17775;57.948;12.514;2022-07-25T01:44:02;12.32;;;6.80;;
31126;SDS011;17775;57.948;12.514;2022-07-25T01:46:29;13.45;;;6.85;;
31126;SDS011;17775;57.948;12.514;2022-07-25T01:48:55;15.40;;;6.45;;
31126;SDS011;17775;57.948;12.514;2022-07-25T01:51:22;15.10;;;6.65;;
31126;SDS011;17775;57.948;12.514;2022-07-25T01:53:52;15.25;;;6.20;;
31126;SDS011;17775;57.948;12.514;2022-07-25T01:56:18;14.82;;;6.68;;
31126;SDS011;17775;57.948;12.514;2022-07-25T01:58:47;10.45;;;6.65;;
31126;SDS011;17775;57.948;12.514;2022-07-25T02:01:14;11.30;;;6.30;;
31126;SDS011;17775;57.948;12.514;2022-07-25T02:03:40;12.98;;;7.05;;
31126;SDS011;17775;57.948;12.514;2022-07-25T02:06:07;9.98;;;6.80;;
31126;SDS011;17775;57.948;12.514;2022-07-25T02:08:33;14.10;;;6.25;;
31126;SDS011;17775;57.948;12.514;2022-07-25T02:11:00;11.35;;;6.05;;
31126;SDS011;17775;57.948;12.514;2022-07-25T02:13:26;11.15;;;5.65;;
31126;SDS011;17775;57.948;12.514;2022-07-25T02:15:53;9.30;;;5.75;;
31126;SDS011;17775;57.948;12.514;2022-07-25T02:18:19;12.18;;;5.63;;
31126;SDS011;17775;57.948;12.514;2022-07-25T02:20:46;10.05;;;5.43;;
31126;SDS011;17775;57.948;12.514;2022-07-25T02:23:12;11.52;;;6.35;;
31126;SDS011;17775;57.948;12.514;2022-07-25T02:25:39;12.93;;;6.28;;
31126;SDS011;17775;57.948;12.514;2022-07-25T02:28:05;9.35;;;6.18;;
31126;SDS011;17775;57.948;12.514;2022-07-25T02:30:32;9.65;;;5.88;;
31126;SDS011;17775;57.948;12.514;2022-07-25T02:33:00;12.40;;;5.93;;
31126;SDS011;17775;57.948;12.514;2022-07-25T02:35:26;13.02;;;6.35;;
31126;SDS011;17775;57.948;12.514;2022-07-25T02:37:53;11.88;;;5.97;;
31126;SDS011;17775;57.948;12.514;2022-07-25T02:40:19;12.80;;;5.68;;
31126;SDS011;17775;57.948;12.514;2022-07-25T02:42:46;11.07;;;6.60;;
31126;SDS011;17775;57.948;12.514;2022-07-25T02:45:12;12.50;;;5.43;;
31126;SDS011;17775;57.948;12.514;2022-07-25T02:47:39;11.73;;;5.00;;
31126;SDS011;17775;57.948;12.514;2022-07-25T02:50:05;9.43;;;5.43;;
31126;SDS011;17775;57.948;12.514;2022-07-25T02:52:33;7.18;;;5.53;;
31126;SDS011;17775;57.948;12.514;2022-07-25T02:54:59;14.93;;;6.35;;
31126;SDS011;17775;57.948;12.514;2022-07-25T02:57:34;13.15;;;5.43;;
31126;SDS011;17775;57.948;12.514;2022-07-25T03:00:00;9.00;;;5.63;;
31126;SDS011;17775;57.948;12.514;2022-07-25T03:02:27;8.45;;;5.60;;
31126;SDS011;17775;57.948;12.514;2022-07-25T03:04:53;11.18;;;5.78;;
31126;SDS011;17775;57.948;12.514;2022-07-25T03:07:19;9.85;;;5.45;;
31126;SDS011;17775;57.948;12.514;2022-07-25T03:09:48;11.63;;;5.28;;
31126;SDS011;17775;57.948;12.514;2022-07-25T03:12:15;10.32;;;5.40;;
31126;SDS011;17775;57.948;12.514;2022-07-25T03:14:41;10.45;;;5.30;;
31126;SDS011;17775;57.948;12.514;2022-07-25T03:17:07;10.90;;;5.10;;
31126;SDS011;17775;57.948;12.514;2022-07-25T03:19:34;8.35;;;5.78;;
31126;SDS011;17775;57.948;12.514;2022-07-25T03:22:00;9.70;;;5.60;;
31126;SDS011;17775;57.948;12.514;2022-07-25T03:24:27;8.90;;;5.70;;
31126;SDS011;17775;57.948;12.514;2022-07-25T03:26:53;11.30;;;5.13;;
31126;SDS011;17775;57.948;12.514;2022-07-25T03:29:20;10.35;;;5.70;;
31126;SDS011;17775;57.948;12.514;2022-07-25T03:31:47;9.32;;;5.50;;
31126;SDS011;17775;57.948;12.514;2022-07-25T03:34:13;9.68;;;5.78;;
31126;SDS011;17775;57.948;12.514;2022-07-25T03:36:40;9.18;;;5.80;;
31126;SDS011;17775;57.948;12.514;2022-07-25T03:39:06;10.68;;;6.10;;
31126;SDS011;17775;57.948;12.514;2022-07-25T03:41:32;10.40;;;6.45;;
31126;SDS011;17775;57.948;12.514;2022-07-25T03:43:59;13.00;;;6.75;;
31126;SDS011;17775;57.948;12.514;2022-07-25T03:46:25;9.68;;;6.50;;
31126;SDS011;17775;57.948;12.514;2022-07-25T03:48:52;11.95;;;6.60;;
31126;SDS011;17775;57.948;12.514;2022-07-25T03:51:21;10.40;;;6.22;;
31126;SDS011;17775;57.948;12.514;2022-07-25T03:53:48;9.93;;;7.18;;
31126;SDS011;17775;57.948;12.514;2022-07-25T03:56:36;12.73;;;7.30;;
31126;SDS011;17775;57.948;12.514;2022-07-25T03:59:09;11.95;;;7.57;;
31126;SDS011;17775;57.948;12.514;2022-07-25T04:01:36;11.07;;;7.22;;
31126;SDS011;17775;57.948;12.514;2022-07-25T04:04:03;11.32;;;7.15;;
31126;SDS011;17775;57.948;12.514;2022-07-25T04:06:31;11.52;;;7.38;;
31126;SDS011;17775;57.948;12.514;2022-07-25T04:09:00;11.73;;;7.25;;
31126;SDS011;17775;57.948;12.514;2022-07-25T04:11:27;10.15;;;7.47;;
31126;SDS011;17775;57.948;12.514;2022-07-25T04:13:56;11.02;;;8.10;;
31126;SDS011;17775;57.948;12.514;2022-07-25T04:16:22;11.27;;;8.05;;
31126;SDS011;17775;57.948;12.514;2022-07-25T04:18:50;13.65;;;7.75;;
31126;SDS011;17775;57.948;12.514;2022-07-25T04:21:17;10.57;;;7.72;;
31126;SDS011;17775;57.948;12.514;2022-07-25T04:23:44;11.55;;;7.55;;
31126;SDS011;17775;57.948;12.514;2022-07-25T04:26:10;10.20;;;7.45;;
31126;SDS011;17775;57.948;12.514;2022-07-25T04:28:37;17.17;;;8.23;;
31126;SDS011;17775;57.948;12.514;2022-07-25T04:31:03;9.40;;;7.43;;
31126;SDS011;17775;57.948;12.514;2022-07-25T04:33:30;10.23;;;7.25;;
31126;SDS011;17775;57.948;12.514;2022-07-25T04:35:56;11.25;;;7.47;;
31126;SDS011;17775;57.948;12.514;2022-07-25T04:38:23;11.73;;;6.47;;
31126;SDS011;17775;57.948;12.514;2022-07-25T04:40:49;14.63;;;8.02;;
31126;SDS011;17775;57.948;12.514;2022-07-25T04:43:16;11.57;;;7.60;;
31126;SDS011;17775;57.948;12.514;2022-07-25T04:45:46;11.00;;;7.95;;
31126;SDS011;17775;57.948;12.514;2022-07-25T04:48:13;14.80;;;7.68;;
31126;SDS011;17775;57.948;12.514;2022-07-25T04:50:39;11.63;;;8.13;;
31126;SDS011;17775;57.948;12.514;2022-07-25T04:53:05;15.27;;;9.13;;
31126;SDS011;17775;57.948;12.514;2022-07-25T04:55:32;12.80;;;8.40;;
31126;SDS011;17775;57.948;12.514;2022-07-25T04:57:59;14.35;;;8.73;;
31126;SDS011;17775;57.948;12.514;2022-07-25T05:00:25;17.08;;;8.77;;
31126;SDS011;17775;57.948;12.514;2022-07-25T05:02:52;19.02;;;10.57;;
31126;SDS011;17775;57.948;12.514;2022-07-25T05:05:19;16.02;;;9.68;;
31126;SDS011;17775;57.948;12.514;2022-07-25T05:07:47;17.60;;;9.60;;
31126;SDS011;17775;57.948;12.514;2022-07-25T05:10:13;16.30;;;10.07;;
31126;SDS011;17775;57.948;12.514;2022-07-25T05:12:40;19.35;;;10.88;;
31126;SDS011;17775;57.948;12.514;2022-07-25T05:15:07;16.67;;;11.07;;
31126;SDS011;17775;57.948;12.514;2022-07-25T05:17:33;18.67;;;12.10;;
31126;SDS011;17775;57.948;12.514;2022-07-25T05:20:00;22.15;;;12.98;;
31126;SDS011;17775;57.948;12.514;2022-07-25T05:22:26;22.63;;;12.35;;
31126;SDS011;17775;57.948;12.514;2022-07-25T05:24:54;21.05;;;12.65;;
31126;SDS011;17775;57.948;12.514;2022-07-25T05:27:21;21.17;;;12.70;;
31126;SDS011;17775;57.948;12.514;2022-07-25T05:29:48;27.17;;;13.60;;
31126;SDS011;17775;57.948;12.514;2022-07-25T05:32:14;30.00;;;13.73;;
31126;SDS011;17775;57.948;12.514;2022-07-25T05:34:41;20.55;;;12.93;;
31126;SDS011;17775;57.948;12.514;2022-07-25T05:37:07;22.35;;;13.70;;
31126;SDS011;17775;57.948;12.514;2022-07-25T05:39:34;18.83;;;12.02;;
31126;SDS011;17775;57.948;12.514;2022-07-25T05:42:02;21.95;;;14.38;;
31126;SDS011;17775;57.948;12.514;2022-07-25T05:44:30;21.88;;;14.85;;
31126;SDS011;17775;57.948;12.514;2022-07-25T05:46:57;26.20;;;15.50;;
31126;SDS011;17775;57.948;12.514;2022-07-25T05:49:23;26.73;;;13.70;;
31126;SDS011;17775;57.948;12.514;2022-07-25T05:51:50;27.63;;;15.98;;
31126;SDS011;17775;57.948;12.514;2022-07-25T05:54:16;27.63;;;15.23;;
31126;SDS011;17775;57.948;12.514;2022-07-25T05:56:43;21.60;;;13.63;;
31126;SDS011;17775;57.948;12.514;2022-07-25T05:59:09;16.58;;;11.68;;
31126;SDS011;17775;57.948;12.514;2022-07-25T06:01:36;28.83;;;15.80;;
31126;SDS011;17775;57.948;12.514;2022-07-25T06:04:03;20.45;;;13.80;;
31126;SDS011;17775;57.948;12.514;2022-07-25T06:06:30;23.90;;;14.35;;
31126;SDS011;17775;57.948;12.514;2022-07-25T06:08:57;23.35;;;13.75;;
31126;SDS011;17775;57.948;12.514;2022-07-25T06:11:24;14.77;;;11.23;;
31126;SDS011;17775;57.948;12.514;2022-07-25T06:13:56;13.93;;;11.48;;
31126;SDS011;17775;57.948;12.514;2022-07-25T06:16:23;14.98;;;11.40;;
31126;SDS011;17775;57.948;12.514;2022-07-25T06:18:49;18.80;;;12.13;;
31126;SDS011;17775;57.948;12.514;2022-07-25T06:21:16;20.45;;;12.40;;
31126;SDS011;17775;57.948;12.514;2022-07-25T06:23:42;15.57;;;10.98;;
31126;SDS011;17775;57.948;12.514;2022-07-25T06:26:09;22.73;;;12.07;;
31126;SDS011;17775;57.948;12.514;2022-07-25T06:28:35;16.88;;;11.52;;
31126;SDS011;17775;57.948;12.514;2022-07-25T06:31:02;17.98;;;12.40;;
31126;SDS011;17775;57.948;12.514;2022-07-25T06:33:29;18.25;;;12.40;;
31126;SDS011;17775;57.948;12.514;2022-07-25T06:35:55;20.33;;;12.82;;
31126;SDS011;17775;57.948;12.514;2022-07-25T06:38:21;18.95;;;12.73;;
31126;SDS011;17775;57.948;12.514;2022-07-25T06:40:48;17.45;;;11.85;;
31126;SDS011;17775;57.948;12.514;2022-07-25T06:43:16;16.48;;;12.45;;
31126;SDS011;17775;57.948;12.514;2022-07-25T06:45:43;17.25;;;12.52;;
31126;SDS011;17775;57.948;12.514;2022-07-25T06:48:13;18.10;;;12.25;;
31126;SDS011;17775;57.948;12.514;2022-07-25T06:50:40;18.63;;;13.30;;
31126;SDS011;17775;57.948;12.514;2022-07-25T06:53:06;15.43;;;12.02;;
31126;SDS011;17775;57.948;12.514;2022-07-25T06:55:33;18.65;;;12.77;;
31126;SDS011;17775;57.948;12.514;2022-07-25T06:57:59;20.45;;;13.60;;
31126;SDS011;17775;57.948;12.514;2022-07-25T07:00:28;17.52;;;12.60;;
31126;SDS011;17775;57.948;12.514;2022-07-25T07:02:56;21.50;;;14.32;;
31126;SDS011;17775;57.948;12.514;2022-07-25T07:05:24;19.23;;;13.23;;
31126;SDS011;17775;57.948;12.514;2022-07-25T07:07:51;15.93;;;12.82;;
31126;SDS011;17775;57.948;12.514;2022-07-25T07:10:18;19.10;;;12.80;;
31126;SDS011;17775;57.948;12.514;2022-07-25T07:12:44;20.10;;;13.48;;
31126;SDS011;17775;57.948;12.514;2022-07-25T07:15:11;18.83;;;13.77;;
31126;SDS011;17775;57.948;12.514;2022-07-25T07:17:40;21.08;;;13.52;;
31126;SDS011;17775;57.948;12.514;2022-07-25T07:20:07;20.27;;;13.73;;
31126;SDS011;17775;57.948;12.514;2022-07-25T07:22:47;22.45;;;14.68;;
31126;SDS011;17775;57.948;12.514;2022-07-25T07:25:14;16.35;;;12.25;;
31126;SDS011;17775;57.948;12.514;2022-07-25T07:27:44;17.05;;;11.88;;
31126;SDS011;17775;57.948;12.514;2022-07-25T07:30:11;17.48;;;12.13;;
31126;SDS011;17775;57.948;12.514;2022-07-25T07:32:40;17.02;;;12.20;;
31126;SDS011;17775;57.948;12.514;2022-07-25T07:35:07;14.85;;;10.70;;
31126;SDS011;17775;57.948;12.514;2022-07-25T07:37:33;16.85;;;11.57;;
31126;SDS011;17775;57.948;12.514;2022-07-25T07:40:06;14.23;;;11.95;;
31126;SDS011;17775;57.948;12.514;2022-07-25T07:42:46;16.08;;;12.38;;
31126;SDS011;17775;57.948;12.514;2022-07-25T07:45:17;17.08;;;10.95;;
31126;SDS011;17775;57.948;12.514;2022-07-25T07:47:46;12.68;;;10.25;;
31126;SDS011;17775;57.948;12.514;2022-07-25T07:50:14;23.58;;;12.05;;
31126;SDS011;17775;57.948;12.514;2022-07-25T07:52:41;15.10;;;10.00;;
31126;SDS011;17775;57.948;12.514;2022-07-25T07:55:08;12.82;;;10.10;;
31126;SDS011;17775;57.948;12.514;2022-07-25T07:57:53;11.43;;;8.85;;
31126;SDS011;17775;57.948;12.514;2022-07-25T08:00:20;11.65;;;9.48;;
31126;SDS011;17775;57.948;12.514;2022-07-25T08:02:49;13.73;;;9.50;;
31126;SDS011;17775;57.948;12.514;2022-07-25T08:05:20;11.82;;;8.45;;
31126;SDS011;17775;57.948;12.514;2022-07-25T08:07:49;10.82;;;8.52;;
31126;SDS011;17775;57.948;12.514;2022-07-25T08:10:20;13.55;;;8.80;;
31126;SDS011;17775;57.948;12.514;2022-07-25T08:12:47;12.13;;;8.65;;
31126;SDS011;17775;57.948;12.514;2022-07-25T08:15:14;12.13;;;8.95;;
31126;SDS011;17775;57.948;12.514;2022-07-25T08:17:41;9.82;;;7.50;;
31126;SDS011;17775;57.948;12.514;2022-07-25T08:20:08;10.57;;;8.00;;
31126;SDS011;17775;57.948;12.514;2022-07-25T08:22:55;10.50;;;7.75;;
31126;SDS011;17775;57.948;12.514;2022-07-25T08:25:22;8.48;;;6.85;;
31126;SDS011;17775;57.948;12.514;2022-07-25T08:27:48;10.88;;;8.15;;
31126;SDS011;17775;57.948;12.514;2022-07-25T08:30:15;8.75;;;6.70;;
31126;SDS011;17775;57.948;12.514;2022-07-25T08:32:53;8.82;;;6.63;;
31126;SDS011;17775;57.948;12.514;2022-07-25T08:35:22;8.15;;;6.28;;
31126;SDS011;17775;57.948;12.514;2022-07-25T08:37:49;11.07;;;7.20;;
31126;SDS011;17775;57.948;12.514;2022-07-25T08:40:16;9.35;;;6.13;;
31126;SDS011;17775;57.948;12.514;2022-07-25T08:42:43;8.88;;;6.45;;
31126;SDS011;17775;57.948;12.514;2022-07-25T08:45:10;9.85;;;5.45;;
31126;SDS011;17775;57.948;12.514;2022-07-25T08:47:45;7.40;;;5.38;;
31126;SDS011;17775;57.948;12.514;2022-07-25T08:50:14;6.47;;;5.43;;
31126;SDS011;17775;57.948;12.514;2022-07-25T08:52:43;6.57;;;5.22;;
31126;SDS011;17775;57.948;12.514;2022-07-25T08:55:11;7.47;;;4.70;;
31126;SDS011;17775;57.948;12.514;2022-07-25T08:57:40;6.82;;;5.20;;
31126;SDS011;17775;57.948;12.514;2022-07-25T09:00:09;5.93;;;5.00;;
31126;SDS011;17775;57.948;12.514;2022-07-25T09:02:37;6.30;;;4.78;;
31126;SDS011;17775;57.948;12.514;2022-07-25T09:05:05;7.10;;;4.55;;
31126;SDS011;17775;57.948;12.514;2022-07-25T09:07:33;6.03;;;4.72;;
31126;SDS011;17775;57.948;12.514;2022-07-25T09:10:17;9.50;;;5.35;;
31126;SDS011;17775;57.948;12.514;2022-07-25T09:12:54;5.95;;;4.50;;
31126;SDS011;17775;57.948;12.514;2022-07-25T09:17:51;8.53;;;5.13;;
31126;SDS011;17775;57.948;12.514;2022-07-25T09:20:18;9.32;;;5.18;;
31126;SDS011;17775;57.948;12.514;2022-07-25T09:22:45;7.38;;;5.35;;
31126;SDS011;17775;57.948;12.514;2022-07-25T09:25:24;7.43;;;5.45;;
31126;SDS011;17775;57.948;12.514;2022-07-25T09:27:51;8.90;;;6.47;;
31126;SDS011;17775;57.948;12.514;2022-07-25T09:30:18;11.52;;;7.20;;
31126;SDS011;17775;57.948;12.514;2022-07-25T09:32:57;11.43;;;7.22;;
31126;SDS011;17775;57.948;12.514;2022-07-25T09:35:31;9.20;;;6.95;;
31126;SDS011;17775;57.948;12.514;2022-07-25T09:38:09;7.90;;;6.47;;
31126;SDS011;17775;57.948;12.514;2022-07-25T09:40:36;8.73;;;7.07;;
31126;SDS011;17775;57.948;12.514;2022-07-25T09:43:02;9.05;;;7.22;;
31126;SDS011;17775;57.948;12.514;2022-07-25T09:45:29;8.85;;;7.38;;
31126;SDS011;17775;57.948;12.514;2022-07-25T09:48:00;11.25;;;8.55;;
31126;SDS011;17775;57.948;12.514;2022-07-25T09:50:28;11.80;;;8.70;;
31126;SDS011;17775;57.948;12.514;2022-07-25T09:52:58;16.52;;;9.50;;
31126;SDS011;17775;57.948;12.514;2022-07-25T09:55:26;14.27;;;10.52;;
31126;SDS011;17775;57.948;12.514;2022-07-25T09:57:52;13.25;;;10.52;;
31126;SDS011;17775;57.948;12.514;2022-07-25T10:00:23;15.50;;;11.25;;
31126;SDS011;17775;57.948;12.514;2022-07-25T10:08:04;14.25;;;12.35;;
31126;SDS011;17775;57.948;12.514;2022-07-25T10:10:31;14.60;;;10.88;;
31126;SDS011;17775;57.948;12.514;2022-07-25T10:13:05;14.63;;;11.27;;
31126;SDS011;17775;57.948;12.514;2022-07-25T10:15:41;15.13;;;11.25;;
31126;SDS011;17775;57.948;12.514;2022-07-25T10:18:10;12.88;;;11.13;;
31126;SDS011;17775;57.948;12.514;2022-07-25T10:20:37;13.85;;;10.95;;
31126;SDS011;17775;57.948;12.514;2022-07-25T10:23:03;14.18;;;11.07;;
31126;SDS011;17775;57.948;12.514;2022-07-25T10:25:30;15.18;;;11.18;;
31126;SDS011;17775;57.948;12.514;2022-07-25T10:28:05;11.65;;;10.35;;
31126;SDS011;17775;57.948;12.514;2022-07-25T10:30:34;12.48;;;10.48;;
31126;SDS011;17775;57.948;12.514;2022-07-25T10:33:02;13.30;;;11.50;;
31126;SDS011;17775;57.948;12.514;2022-07-25T10:35:31;15.90;;;10.98;;
31126;SDS011;17775;57.948;12.514;2022-07-25T10:37:58;13.23;;;10.50;;
31126;SDS011;17775;57.948;12.514;2022-07-25T10:40:25;17.15;;;11.27;;
31126;SDS011;17775;57.948;12.514;2022-07-25T10:45:50;14.18;;;11.18;;
31126;SDS011;17775;57.948;12.514;2022-07-25T10:48:25;25.95;;;12.00;;
31126;SDS011;17775;57.948;12.514;2022-07-25T10:50:56;15.38;;;9.20;;
31126;SDS011;17775;57.948;12.514;2022-07-25T10:55:56;16.55;;;10.20;;
31126;SDS011;17775;57.948;12.514;2022-07-25T10:58:41;35.55;;;11.43;;
31126;SDS011;17775;57.948;12.514;2022-07-25T11:01:09;21.95;;;12.85;;
31126;SDS011;17775;57.948;12.514;2022-07-25T11:03:36;20.40;;;12.35;;
31126;SDS011;17775;57.948;12.514;2022-07-25T11:06:02;29.13;;;13.73;;
31126;SDS011;17775;57.948;12.514;2022-07-25T11:08:29;25.67;;;12.82;;
31126;SDS011;17775;57.948;12.514;2022-07-25T11:10:56;26.17;;;15.70;;
31126;SDS011;17775;57.948;12.514;2022-07-25T11:13:22;17.23;;;12.95;;
31126;SDS011;17775;57.948;12.514;2022-07-25T11:15:49;15.85;;;10.75;;
31126;SDS011;17775;57.948;12.514;2022-07-25T11:18:15;20.80;;;12.93;;
31126;SDS011;17775;57.948;12.514;2022-07-25T11:20:43;21.92;;;13.23;;
31126;SDS011;17775;57.948;12.514;2022-07-25T11:23:10;17.40;;;13.20;;
31126;SDS011;17775;57.948;12.514;2022-07-25T11:25:36;21.50;;;14.30;;
31126;SDS011;17775;57.948;12.514;2022-07-25T11:28:03;24.38;;;14.40;;
31126;SDS011;17775;57.948;12.514;2022-07-25T11:30:29;24.40;;;16.00;;
31126;SDS011;17775;57.948;12.514;2022-07-25T11:32:57;28.95;;;15.15;;
31126;SDS011;17775;57.948;12.514;2022-07-25T11:35:27;36.58;;;16.02;;
31126;SDS011;17775;57.948;12.514;2022-07-25T11:37:53;35.17;;;15.18;;
31126;SDS011;17775;57.948;12.514;2022-07-25T11:40:20;23.58;;;16.05;;
31126;SDS011;17775;57.948;12.514;2022-07-25T11:42:51;28.17;;;17.15;;
31126;SDS011;17775;57.948;12.514;2022-07-25T11:45:19;37.80;;;18.13;;
31126;SDS011;17775;57.948;12.514;2022-07-25T11:48:00;31.33;;;18.70;;
31126;SDS011;17775;57.948;12.514;2022-07-25T11:50:28;34.33;;;19.10;;
31126;SDS011;17775;57.948;12.514;2022-07-25T11:52:58;38.17;;;19.65;;
31126;SDS011;17775;57.948;12.514;2022-07-25T11:55:29;38.63;;;20.55;;
31126;SDS011;17775;57.948;12.514;2022-07-25T12:00:22;39.22;;;19.77;;
31126;SDS011;17775;57.948;12.514;2022-07-25T12:02:49;27.65;;;17.33;;
31126;SDS011;17775;57.948;12.514;2022-07-25T12:05:17;30.88;;;18.98;;
31126;SDS011;17775;57.948;12.514;2022-07-25T12:10:11;28.55;;;18.25;;
31126;SDS011;17775;57.948;12.514;2022-07-25T12:12:46;25.30;;;16.83;;
31126;SDS011;17775;57.948;12.514;2022-07-25T12:15:14;30.00;;;17.90;;
31126;SDS011;17775;57.948;12.514;2022-07-25T12:17:41;25.13;;;16.20;;
31126;SDS011;17775;57.948;12.514;2022-07-25T12:20:12;26.35;;;17.67;;
31126;SDS011;17775;57.948;12.514;2022-07-25T12:22:39;31.23;;;17.27;;
31126;SDS011;17775;57.948;12.514;2022-07-25T12:25:06;31.00;;;16.33;;
31126;SDS011;17775;57.948;12.514;2022-07-25T12:27:36;24.38;;;14.50;;
31126;SDS011;17775;57.948;12.514;2022-07-25T12:30:03;22.10;;;13.47;;
31126;SDS011;17775;57.948;12.514;2022-07-25T12:32:29;32.60;;;14.70;;
31126;SDS011;17775;57.948;12.514;2022-07-25T12:34:56;30.17;;;15.48;;
31126;SDS011;17775;57.948;12.514;2022-07-25T12:37:22;18.02;;;9.23;;
31126;SDS011;17775;57.948;12.514;2022-07-25T12:39:50;16.70;;;10.00;;
31126;SDS011;17775;57.948;12.514;2022-07-25T12:42:17;11.80;;;6.40;;
31126;SDS011;17775;57.948;12.514;2022-07-25T12:44:44;9.45;;;5.95;;
31126;SDS011;17775;57.948;12.514;2022-07-25T12:47:11;8.35;;;4.93;;
31126;SDS011;17775;57.948;12.514;2022-07-25T12:49:37;11.25;;;6.32;;
31126;SDS011;17775;57.948;12.514;2022-07-25T12:52:04;6.82;;;5.28;;
31126;SDS011;17775;57.948;12.514;2022-07-25T12:54:30;7.07;;;4.28;;
31126;SDS011;17775;57.948;12.514;2022-07-25T12:56:57;6.32;;;4.43;;
31126;SDS011;17775;57.948;12.514;2022-07-25T12:59:23;8.07;;;3.55;;
31126;SDS011;17775;57.948;12.514;2022-07-25T13:01:50;6.50;;;3.47;;
31126;SDS011;17775;57.948;12.514;2022-07-25T13:04:16;5.45;;;3.22;;
31126;SDS011;17775;57.948;12.514;2022-07-25T13:06:43;4.28;;;3.30;;
31126;SDS011;17775;57.948;12.514;2022-07-25T13:09:09;5.05;;;3.47;;
31126;SDS011;17775;57.948;12.514;2022-07-25T13:11:36;5.43;;;3.38;;
31126;SDS011;17775;57.948;12.514;2022-07-25T13:14:02;4.85;;;3.15;;
31126;SDS011;17775;57.948;12.514;2022-07-25T13:16:29;6.40;;;2.92;;
31126;SDS011;17775;57.948;12.514;2022-07-25T13:18:56;5.18;;;2.83;;
31126;SDS011;17775;57.948;12.514;2022-07-25T13:21:22;5.47;;;3.67;;
31126;SDS011;17775;57.948;12.514;2022-07-25T13:23:50;6.22;;;4.10;;
31126;SDS011;17775;57.948;12.514;2022-07-25T13:26:19;9.35;;;3.38;;
31126;SDS011;17775;57.948;12.514;2022-07-25T13:28:46;5.13;;;3.60;;
31126;SDS011;17775;57.948;12.514;2022-07-25T13:31:13;5.50;;;4.13;;
31126;SDS011;17775;57.948;12.514;2022-07-25T13:33:39;4.88;;;3.50;;
31126;SDS011;17775;57.948;12.514;2022-07-25T13:36:06;4.22;;;3.25;;
31126;SDS011;17775;57.948;12.514;2022-07-25T13:38:32;8.80;;;3.95;;
31126;SDS011;17775;57.948;12.514;2022-07-25T13:40:59;7.70;;;3.65;;
31126;SDS011;17775;57.948;12.514;2022-07-25T13:43:30;6.10;;;3.17;;
31126;SDS011;17775;57.948;12.514;2022-07-25T13:45:57;6.85;;;3.38;;
31126;SDS011;17775;57.948;12.514;2022-07-25T13:48:24;6.63;;;3.50;;
31126;SDS011;17775;57.948;12.514;2022-07-25T13:50:56;6.03;;;3.78;;
31126;SDS011;17775;57.948;12.514;2022-07-25T13:53:22;3.22;;;2.40;;
31126;SDS011;17775;57.948;12.514;2022-07-25T13:55:55;6.22;;;3.67;;
31126;SDS011;17775;57.948;12.514;2022-07-25T13:58:22;6.85;;;3.83;;
31126;SDS011;17775;57.948;12.514;2022-07-25T14:00:49;7.53;;;4.03;;
31126;SDS011;17775;57.948;12.514;2022-07-25T14:03:15;6.22;;;3.83;;
31126;SDS011;17775;57.948;12.514;2022-07-25T14:05:42;5.40;;;3.78;;
31126;SDS011;17775;57.948;12.514;2022-07-25T14:08:08;6.43;;;4.60;;
31126;SDS011;17775;57.948;12.514;2022-07-25T14:10:35;6.43;;;4.10;;
31126;SDS011;17775;57.948;12.514;2022-07-25T14:13:01;8.50;;;4.93;;
31126;SDS011;17775;57.948;12.514;2022-07-25T14:15:28;7.45;;;4.55;;
31126;SDS011;17775;57.948;12.514;2022-07-25T14:17:54;6.03;;;3.88;;
31126;SDS011;17775;57.948;12.514;2022-07-25T14:20:21;10.45;;;5.43;;
31126;SDS011;17775;57.948;12.514;2022-07-25T14:22:47;7.32;;;4.50;;
31126;SDS011;17775;57.948;12.514;2022-07-25T14:25:14;10.18;;;5.43;;
31126;SDS011;17775;57.948;12.514;2022-07-25T14:27:40;7.60;;;4.70;;
31126;SDS011;17775;57.948;12.514;2022-07-25T14:30:09;13.85;;;5.22;;
31126;SDS011;17775;57.948;12.514;2022-07-25T14:32:36;11.07;;;5.43;;
31126;SDS011;17775;57.948;12.514;2022-07-25T14:35:08;13.32;;;5.80;;
31126;SDS011;17775;57.948;12.514;2022-07-25T14:37:36;14.57;;;5.50;;
31126;SDS011;17775;57.948;12.514;2022-07-25T14:40:17;7.38;;;4.63;;
31126;SDS011;17775;57.948;12.514;2022-07-25T14:42:43;10.10;;;5.85;;